createdAt,value
2022-11-21T00:00:08.082Z,5.81
2022-11-21T00:01:08.066Z,5.88
2022-11-21T00:02:08.094Z,5.91
2022-11-21T00:03:08.023Z,5.91
2022-11-21T00:04:08.003Z,5.87
2022-11-21T00:05:07.979Z,5.95
2022-11-21T00:06:07.958Z,5.99
2022-11-21T00:07:08.067Z,5.92
2022-11-21T00:08:07.923Z,5.99
2022-11-21T00:09:07.900Z,6.02
2022-11-21T00:10:07.883Z,6.02
2022-11-21T00:11:07.861Z,6.05
2022-11-21T00:12:07.840Z,6.01
2022-11-21T00:13:07.821Z,6.07
2022-11-21T00:14:07.802Z,5.97
2022-11-21T00:15:07.779Z,6.07
2022-11-21T00:16:07.757Z,5.98
2022-11-21T00:17:07.740Z,5.97
2022-11-21T00:18:07.720Z,6.06
2022-11-21T00:19:07.700Z,6.05
2022-11-21T00:20:07.676Z,6.01
2022-11-21T00:21:07.659Z,6.02
2022-11-21T00:22:07.638Z,6.02
2022-11-21T00:23:07.620Z,6.06
2022-11-21T00:24:07.602Z,6.05
2022-11-21T00:25:07.580Z,6.01
2022-11-21T00:26:07.555Z,6.02
2022-11-21T00:27:07.539Z,6.05
2022-11-21T00:28:07.518Z,6.06
2022-11-21T00:29:07.510Z,6.05
2022-11-21T00:30:07.479Z,6.09
2022-11-21T00:31:07.469Z,6.07
2022-11-21T00:32:07.436Z,6.01
2022-11-21T00:33:07.416Z,6.01
2022-11-21T00:34:07.396Z,5.97
2022-11-21T00:35:07.379Z,6.02
2022-11-21T00:36:07.387Z,5.98
2022-11-21T00:37:07.338Z,6.02
2022-11-21T00:38:07.317Z,5.97
2022-11-21T00:39:07.296Z,5.98
2022-11-21T00:40:07.276Z,5.98
2022-11-21T00:41:07.259Z,5.92
2022-11-21T00:42:07.238Z,5.99
2022-11-21T00:43:07.222Z,5.87
2022-11-21T00:44:07.192Z,5.88
2022-11-21T00:45:07.179Z,5.92
2022-11-21T00:46:07.158Z,5.84
2022-11-21T00:47:07.141Z,5.83
2022-11-21T00:48:07.116Z,5.79
2022-11-21T00:49:07.098Z,5.83
2022-11-21T00:50:07.081Z,5.77
2022-11-21T00:51:07.058Z,5.77
2022-11-21T00:52:07.034Z,5.69
2022-11-21T00:53:07.014Z,5.70
2022-11-21T00:54:06.997Z,5.72
2022-11-21T00:55:06.983Z,5.72
2022-11-21T00:56:06.954Z,5.74
2022-11-21T00:57:06.936Z,5.67
2022-11-21T00:58:06.913Z,5.67
2022-11-21T00:59:06.895Z,5.61
2022-11-21T01:00:06.874Z,5.67
2022-11-21T01:01:06.972Z,5.62
2022-11-21T01:02:06.833Z,5.67
2022-11-21T01:03:06.815Z,5.67
2022-11-21T01:04:06.793Z,5.62
2022-11-21T01:05:06.778Z,5.64
2022-11-21T01:06:06.752Z,5.62
2022-11-21T01:07:06.822Z,5.62
2022-11-21T01:08:06.712Z,5.58
2022-11-21T01:09:06.691Z,5.65
2022-11-21T01:10:06.675Z,5.59
2022-11-21T01:11:06.651Z,5.62
2022-11-21T01:12:06.630Z,5.61
2022-11-21T01:13:06.616Z,5.56
2022-11-21T01:14:06.591Z,5.70
2022-11-21T01:15:06.572Z,5.65
2022-11-21T01:16:06.550Z,5.65
2022-11-21T01:17:06.530Z,5.72
2022-11-21T01:18:06.512Z,5.69
2022-11-21T01:19:06.492Z,5.73
2022-11-21T01:20:06.467Z,5.74
2022-11-21T01:21:06.450Z,5.64
2022-11-21T01:22:06.428Z,5.74
2022-11-21T01:23:06.409Z,5.77
2022-11-21T01:24:06.389Z,5.80
2022-11-21T01:25:06.368Z,5.88
2022-11-21T01:26:06.351Z,5.84
2022-11-21T01:27:06.331Z,5.91
2022-11-21T01:28:06.308Z,5.90
2022-11-21T01:29:06.296Z,5.91
2022-11-21T01:30:06.267Z,5.90
2022-11-21T01:31:06.256Z,5.80
2022-11-21T01:32:06.226Z,5.90
2022-11-21T01:33:06.208Z,5.91
2022-11-21T01:34:06.191Z,6.01
2022-11-21T01:35:06.167Z,5.97
2022-11-21T01:36:06.146Z,5.98
2022-11-21T01:37:06.127Z,5.92
2022-11-21T01:38:06.108Z,6.01
2022-11-21T01:39:06.085Z,5.94
2022-11-21T01:40:06.068Z,5.92
2022-11-21T01:41:06.045Z,5.95
2022-11-21T01:42:06.025Z,6.02
2022-11-21T01:43:06.005Z,6.05
2022-11-21T01:44:05.992Z,6.02
2022-11-21T01:45:05.966Z,6.05
2022-11-21T01:46:05.945Z,6.07
2022-11-21T01:47:05.924Z,6.15
2022-11-21T01:48:05.909Z,6.07
2022-11-21T01:49:05.885Z,6.07
2022-11-21T01:50:10.406Z,6.15
2022-11-21T01:51:05.842Z,6.19
2022-11-21T01:52:05.832Z,6.09
2022-11-21T01:53:05.805Z,6.15
2022-11-21T01:54:05.784Z,6.01
2022-11-21T01:55:05.765Z,6.12
2022-11-21T01:56:05.744Z,6.05
2022-11-21T01:57:05.730Z,6.05
2022-11-21T01:58:05.704Z,6.07
2022-11-21T01:59:05.688Z,6.06
2022-11-21T02:00:05.665Z,6.06
2022-11-21T02:01:05.718Z,6.12
2022-11-21T02:02:05.626Z,5.95
2022-11-21T02:03:05.608Z,5.92
2022-11-21T02:04:05.586Z,6.02
2022-11-21T02:05:05.565Z,5.92
2022-11-21T02:06:05.544Z,5.99
2022-11-21T02:07:05.572Z,5.99
2022-11-21T02:08:05.504Z,5.97
2022-11-21T02:09:05.482Z,5.97
2022-11-21T02:10:05.467Z,5.99
2022-11-21T02:11:05.445Z,5.97
2022-11-21T02:12:05.424Z,5.95
2022-11-21T02:13:05.401Z,5.84
2022-11-21T02:14:05.386Z,5.95
2022-11-21T02:15:05.361Z,5.95
2022-11-21T02:16:05.344Z,5.84
2022-11-21T02:17:05.322Z,5.88
2022-11-21T02:18:05.303Z,5.92
2022-11-21T02:19:05.283Z,5.88
2022-11-21T02:20:05.264Z,5.88
2022-11-21T02:21:05.242Z,5.74
2022-11-21T02:22:05.225Z,5.84
2022-11-21T02:23:05.203Z,5.74
2022-11-21T02:24:05.183Z,5.76
2022-11-21T02:25:05.162Z,5.77
2022-11-21T02:26:05.141Z,5.77
2022-11-21T02:27:05.121Z,5.79
2022-11-21T02:28:05.105Z,5.80
2022-11-21T02:29:05.080Z,5.76
2022-11-21T02:30:05.061Z,5.74
2022-11-21T02:31:05.041Z,5.73
2022-11-21T02:32:05.019Z,5.76
2022-11-21T02:33:05.000Z,5.77
2022-11-21T02:34:04.983Z,5.72
2022-11-21T02:35:04.960Z,5.69
2022-11-21T02:36:04.940Z,5.74
2022-11-21T02:37:04.919Z,5.72
2022-11-21T02:38:04.899Z,5.69
2022-11-21T02:39:04.881Z,5.67
2022-11-21T02:40:04.857Z,5.72
2022-11-21T02:41:04.839Z,5.67
2022-11-21T02:42:04.820Z,5.67
2022-11-21T02:43:04.798Z,5.59
2022-11-21T02:44:04.782Z,5.65
2022-11-21T02:45:04.781Z,5.59
2022-11-21T02:46:04.740Z,5.51
2022-11-21T02:47:04.719Z,5.62
2022-11-21T02:48:04.768Z,5.55
2022-11-21T02:49:04.679Z,5.64
2022-11-21T02:50:04.657Z,5.61
2022-11-21T02:51:04.636Z,5.72
2022-11-21T02:52:04.620Z,5.73
2022-11-21T02:53:04.596Z,5.72
2022-11-21T02:54:04.581Z,5.74
2022-11-21T02:55:04.557Z,5.69
2022-11-21T02:56:04.535Z,5.72
2022-11-21T02:57:04.516Z,5.69
2022-11-21T02:58:05.437Z,5.74
2022-11-21T02:59:04.476Z,5.77
2022-11-21T03:00:04.453Z,5.76
2022-11-21T03:01:04.480Z,5.67
2022-11-21T03:02:04.414Z,5.72
2022-11-21T03:03:04.395Z,5.67
2022-11-21T03:04:04.372Z,5.59
2022-11-21T03:05:04.356Z,5.69
2022-11-21T03:06:04.337Z,5.64
2022-11-21T03:07:04.359Z,5.64
2022-11-21T03:08:04.292Z,5.62
2022-11-21T03:09:04.274Z,5.59
2022-11-21T03:10:04.257Z,5.58
2022-11-21T03:11:04.244Z,5.65
2022-11-21T03:12:04.214Z,5.64
2022-11-21T03:13:04.190Z,5.59
2022-11-21T03:14:04.176Z,5.56
2022-11-21T03:15:04.151Z,5.67
2022-11-21T03:16:04.132Z,5.65
2022-11-21T03:17:04.112Z,5.59
2022-11-21T03:18:04.091Z,5.62
2022-11-21T03:19:04.069Z,5.54
2022-11-21T03:20:04.052Z,5.54
2022-11-21T03:21:04.030Z,5.58
2022-11-21T03:22:04.014Z,5.54
2022-11-21T03:23:03.991Z,5.55
2022-11-21T03:24:04.005Z,5.54
2022-11-21T03:25:03.980Z,5.61
2022-11-21T03:26:03.982Z,5.52
2022-11-21T03:27:03.909Z,5.49
2022-11-21T03:28:03.889Z,5.55
2022-11-21T03:29:03.873Z,5.49
2022-11-21T03:30:03.847Z,5.51
2022-11-21T03:31:03.836Z,5.44
2022-11-21T03:32:03.808Z,5.54
2022-11-21T03:33:03.799Z,5.41
2022-11-21T03:34:03.766Z,5.43
2022-11-21T03:35:03.745Z,5.38
2022-11-21T03:36:03.739Z,5.37
2022-11-21T03:37:03.717Z,5.40
2022-11-21T03:38:03.684Z,5.36
2022-11-21T03:39:03.684Z,5.41
2022-11-21T03:40:03.690Z,5.33
2022-11-21T03:41:03.627Z,5.40
2022-11-21T03:42:03.604Z,5.34
2022-11-21T03:43:03.584Z,5.25
2022-11-21T03:44:03.565Z,5.37
2022-11-21T03:45:03.541Z,5.26
2022-11-21T03:46:03.528Z,5.22
2022-11-21T03:47:03.503Z,5.22
2022-11-21T03:48:03.480Z,5.25
2022-11-21T03:49:03.461Z,5.25
2022-11-21T03:50:03.447Z,5.33
2022-11-21T03:51:03.423Z,5.23
2022-11-21T03:52:03.403Z,5.28
2022-11-21T03:53:03.382Z,5.28
2022-11-21T03:54:03.362Z,5.23
2022-11-21T03:55:03.339Z,5.22
2022-11-21T03:56:03.321Z,5.25
2022-11-21T03:57:03.322Z,5.28
2022-11-21T03:58:03.279Z,5.23
2022-11-21T03:59:03.259Z,5.25
2022-11-21T04:00:03.240Z,5.28
2022-11-21T04:01:03.272Z,5.28
2022-11-21T04:02:03.222Z,5.25
2022-11-21T04:03:03.175Z,5.22
2022-11-21T04:04:03.158Z,5.26
2022-11-21T04:05:03.133Z,5.19
2022-11-21T04:06:03.117Z,5.18
2022-11-21T04:07:03.137Z,5.13
2022-11-21T04:08:03.076Z,5.19
2022-11-21T04:09:03.059Z,5.15
2022-11-21T04:10:03.034Z,5.15
2022-11-21T04:11:03.014Z,5.16
2022-11-21T04:12:07.441Z,5.08
2022-11-21T04:13:02.971Z,5.10
2022-11-21T04:14:02.954Z,5.10
2022-11-21T04:15:03.023Z,5.01
2022-11-21T04:16:02.914Z,5.04
2022-11-21T04:17:02.896Z,5.13
2022-11-21T04:18:02.870Z,5.10
2022-11-21T04:19:02.850Z,5.07
2022-11-21T04:20:02.829Z,5.07
2022-11-21T04:21:02.807Z,5.01
2022-11-21T04:22:02.792Z,5.10
2022-11-21T04:23:02.770Z,5.05
2022-11-21T04:24:02.757Z,5.04
2022-11-21T04:25:02.731Z,5.07
2022-11-21T04:26:02.708Z,5.08
2022-11-21T04:27:02.687Z,5.02
2022-11-21T04:28:02.679Z,5.07
2022-11-21T04:29:02.646Z,5.13
2022-11-21T04:30:02.635Z,5.10
2022-11-21T04:31:05.761Z,5.13
2022-11-21T04:32:02.593Z,5.12
2022-11-21T04:33:02.564Z,5.23
2022-11-21T04:34:02.549Z,5.13
2022-11-21T04:35:02.534Z,5.16
2022-11-21T04:36:02.502Z,5.10
2022-11-21T04:37:04.406Z,5.19
2022-11-21T04:38:02.470Z,5.22
2022-11-21T04:39:02.443Z,5.26
2022-11-21T04:40:02.424Z,5.22
2022-11-21T04:41:02.459Z,5.20
2022-11-21T04:42:02.386Z,5.29
2022-11-21T04:43:02.368Z,5.26
2022-11-21T04:44:02.341Z,5.22
2022-11-21T04:45:02.338Z,5.33
2022-11-21T04:46:02.302Z,5.38
2022-11-21T04:47:05.288Z,5.36
2022-11-21T04:48:02.259Z,5.20
2022-11-21T04:49:02.241Z,5.20
2022-11-21T04:50:02.224Z,5.36
2022-11-21T04:51:02.200Z,5.38
2022-11-21T04:52:02.179Z,5.22
2022-11-21T04:53:02.168Z,5.25
2022-11-21T04:54:02.137Z,5.25
2022-11-21T04:55:02.115Z,5.28
2022-11-21T04:56:02.095Z,5.22
2022-11-21T04:57:02.073Z,5.22
2022-11-21T04:58:02.055Z,5.15
2022-11-21T04:59:02.034Z,5.18
2022-11-21T05:00:02.012Z,5.15
2022-11-21T05:01:02.045Z,5.15
2022-11-21T05:02:01.973Z,5.15
2022-11-21T05:03:01.951Z,5.07
2022-11-21T05:04:01.939Z,5.13
2022-11-21T05:05:01.910Z,5.12
2022-11-21T05:06:09.085Z,5.12
2022-11-21T05:08:05.855Z,5.10
2022-11-21T05:09:05.789Z,5.15
2022-11-21T05:11:09.739Z,5.13
2022-11-21T05:12:09.712Z,5.12
2022-11-21T05:13:09.694Z,5.12
2022-11-21T05:14:09.673Z,5.18
2022-11-21T05:15:09.656Z,5.12
2022-11-21T05:16:09.627Z,5.12
2022-11-21T05:17:09.613Z,5.13
2022-11-21T05:18:09.601Z,5.20
2022-11-21T05:19:09.586Z,5.13
2022-11-21T05:20:09.569Z,5.15
2022-11-21T05:21:09.536Z,5.16
2022-11-21T05:22:09.510Z,5.16
2022-11-21T05:23:09.489Z,5.18
2022-11-21T05:24:09.468Z,5.13
2022-11-21T05:25:09.448Z,5.18
2022-11-21T05:26:09.427Z,5.23
2022-11-21T05:27:09.410Z,5.15
2022-11-21T05:28:09.390Z,5.13
2022-11-21T05:29:09.367Z,5.16
2022-11-21T05:30:09.366Z,5.15
2022-11-21T05:31:09.327Z,5.15
2022-11-21T05:32:09.301Z,5.18
2022-11-21T05:33:09.284Z,5.16
2022-11-21T05:34:09.277Z,5.15
2022-11-21T05:35:09.248Z,5.19
2022-11-21T05:36:09.225Z,5.20
2022-11-21T05:37:09.205Z,5.23
2022-11-21T05:38:09.182Z,5.23
2022-11-21T05:39:09.164Z,5.26
2022-11-21T05:40:09.144Z,5.34
2022-11-21T05:41:09.126Z,5.20
2022-11-21T05:42:09.102Z,5.22
2022-11-21T05:43:09.081Z,5.29
2022-11-21T05:44:09.058Z,5.22
2022-11-21T05:45:09.043Z,5.34
2022-11-21T05:46:09.018Z,5.31
2022-11-21T05:47:09.003Z,5.37
2022-11-21T05:48:08.980Z,5.31
2022-11-21T05:49:08.964Z,5.33
2022-11-21T05:50:08.937Z,5.41
2022-11-21T05:51:08.924Z,5.40
2022-11-21T05:52:08.898Z,5.34
2022-11-21T05:53:08.876Z,5.37
2022-11-21T05:54:08.856Z,5.38
2022-11-21T05:55:08.840Z,5.25
2022-11-21T05:56:08.819Z,5.28
2022-11-21T05:57:08.797Z,5.26
2022-11-21T05:58:08.794Z,5.23
2022-11-21T05:59:08.757Z,5.25
2022-11-21T06:00:08.743Z,5.20
2022-11-21T06:01:08.717Z,5.19
2022-11-21T06:02:08.699Z,5.13
2022-11-21T06:03:08.702Z,5.16
2022-11-21T06:04:08.654Z,5.18
2022-11-21T06:05:08.633Z,5.13
2022-11-21T06:06:08.613Z,5.10
2022-11-21T06:07:08.632Z,5.18
2022-11-21T06:08:08.574Z,5.05
2022-11-21T06:09:08.551Z,5.08
2022-11-21T06:10:08.532Z,5.10
2022-11-21T06:11:08.516Z,4.98
2022-11-21T06:12:08.491Z,5.07
2022-11-21T06:13:08.472Z,5.04
2022-11-21T06:14:08.451Z,5.12
2022-11-21T06:15:08.431Z,5.04
2022-11-21T06:16:08.410Z,5.05
2022-11-21T06:17:08.391Z,4.97
2022-11-21T06:18:08.365Z,5.01
2022-11-21T06:19:08.351Z,5.05
2022-11-21T06:20:08.325Z,4.98
2022-11-21T06:21:08.309Z,5.02
2022-11-21T06:22:08.286Z,5.05
2022-11-21T06:23:08.267Z,5.10
2022-11-21T06:24:08.253Z,4.97
2022-11-21T06:25:08.226Z,4.94
2022-11-21T06:26:08.209Z,4.98
2022-11-21T06:27:08.184Z,4.98
2022-11-21T06:28:08.163Z,5.00
2022-11-21T06:29:08.142Z,4.94
2022-11-21T06:30:08.139Z,4.95
2022-11-21T06:31:08.116Z,4.92
2022-11-21T06:32:08.085Z,5.01
2022-11-21T06:33:08.062Z,4.98
2022-11-21T06:34:08.046Z,5.00
2022-11-21T06:35:08.021Z,5.00
2022-11-21T06:36:07.999Z,5.00
2022-11-21T06:37:07.983Z,5.08
2022-11-21T06:38:07.961Z,5.01
2022-11-21T06:39:07.939Z,4.97
2022-11-21T06:40:07.923Z,4.95
2022-11-21T06:41:07.898Z,5.04
2022-11-21T06:42:07.884Z,5.08
2022-11-21T06:43:07.858Z,5.08
2022-11-21T06:44:07.834Z,5.07
2022-11-21T06:45:07.815Z,5.05
2022-11-21T06:46:07.795Z,5.07
2022-11-21T06:47:07.776Z,5.13
2022-11-21T06:48:07.753Z,5.04
2022-11-21T06:49:07.737Z,5.01
2022-11-21T06:50:07.716Z,5.00
2022-11-21T06:51:07.695Z,5.04
2022-11-21T06:52:07.678Z,5.04
2022-11-21T06:53:07.652Z,5.10
2022-11-21T06:54:07.633Z,5.04
2022-11-21T06:55:07.620Z,5.08
2022-11-21T06:56:07.590Z,5.10
2022-11-21T06:57:07.569Z,5.07
2022-11-21T06:58:07.552Z,5.02
2022-11-21T06:59:07.536Z,5.04
2022-11-21T07:00:07.509Z,5.07
2022-11-21T07:01:07.566Z,5.10
2022-11-21T07:02:07.469Z,4.97
2022-11-21T07:03:07.452Z,4.97
2022-11-21T07:04:07.427Z,5.07
2022-11-21T07:05:07.404Z,5.10
2022-11-21T07:06:07.390Z,5.10
2022-11-21T07:07:07.404Z,5.15
2022-11-21T07:08:13.046Z,5.05
2022-11-21T07:09:34.345Z,5.12
2022-11-21T07:10:07.309Z,5.12
2022-11-21T07:12:07.261Z,5.10
2022-11-21T07:13:07.245Z,5.13
2022-11-21T07:14:09.271Z,5.19
2022-11-21T07:15:07.205Z,5.19
2022-11-21T07:16:07.182Z,5.23
2022-11-21T07:17:07.162Z,5.23
2022-11-21T07:18:07.143Z,5.33
2022-11-21T07:19:07.122Z,5.33
2022-11-21T07:20:07.099Z,5.28
2022-11-21T07:21:07.080Z,5.22
2022-11-21T07:22:07.058Z,5.28
2022-11-21T07:23:07.041Z,5.33
2022-11-21T07:24:07.016Z,5.33
2022-11-21T07:25:07.005Z,5.33
2022-11-21T07:26:06.990Z,5.31
2022-11-21T07:27:06.957Z,5.37
2022-11-21T07:28:06.937Z,5.26
2022-11-21T07:29:06.918Z,5.29
2022-11-21T07:30:06.903Z,5.29
2022-11-21T07:31:12.963Z,5.28
2022-11-21T07:32:06.855Z,5.33
2022-11-21T07:33:06.843Z,5.28
2022-11-21T07:34:06.817Z,5.23
2022-11-21T07:35:06.796Z,5.20
2022-11-21T07:36:06.780Z,5.22
2022-11-21T07:37:06.756Z,5.29
2022-11-21T07:38:06.741Z,5.23
2022-11-21T07:39:06.721Z,5.23
2022-11-21T07:40:06.691Z,5.28
2022-11-21T07:41:06.674Z,5.25
2022-11-21T07:42:06.655Z,5.23
2022-11-21T07:43:10.613Z,5.25
2022-11-21T07:44:06.615Z,5.25
2022-11-21T07:45:06.603Z,5.19
2022-11-21T07:46:06.569Z,5.28
2022-11-21T07:47:06.552Z,5.28
2022-11-21T07:48:06.530Z,5.28
2022-11-21T07:49:06.514Z,5.25
2022-11-21T07:50:06.496Z,5.26
2022-11-21T07:51:06.477Z,5.31
2022-11-21T07:52:06.469Z,5.34
2022-11-21T07:53:06.433Z,5.38
2022-11-21T07:54:06.413Z,5.38
2022-11-21T07:55:06.389Z,5.41
2022-11-21T07:56:06.370Z,5.34
2022-11-21T07:57:06.352Z,5.47
2022-11-21T07:58:06.330Z,5.46
2022-11-21T07:59:06.310Z,5.49
2022-11-21T08:00:06.292Z,5.47
2022-11-21T08:01:06.270Z,5.54
2022-11-21T08:02:06.295Z,5.59
2022-11-21T08:03:06.233Z,5.59
2022-11-21T08:04:06.226Z,5.62
2022-11-21T08:05:06.191Z,5.64
2022-11-21T08:06:06.168Z,5.62
2022-11-21T08:07:06.219Z,5.62
2022-11-21T08:08:06.132Z,5.62
2022-11-21T08:09:06.113Z,5.62
2022-11-21T08:10:06.093Z,5.62
2022-11-21T08:11:06.076Z,5.58
2022-11-21T08:12:06.059Z,5.64
2022-11-21T08:13:06.029Z,5.61
2022-11-21T08:14:06.025Z,5.67
2022-11-21T08:15:05.990Z,5.69
2022-11-21T08:16:05.974Z,5.70
2022-11-21T08:17:05.949Z,5.74
2022-11-21T08:18:05.930Z,5.74
2022-11-21T08:19:05.913Z,5.73
2022-11-21T08:20:05.889Z,5.79
2022-11-21T08:21:05.868Z,5.70
2022-11-21T08:22:05.850Z,5.77
2022-11-21T08:23:05.831Z,5.73
2022-11-21T08:24:05.805Z,5.79
2022-11-21T08:25:05.791Z,5.87
2022-11-21T08:26:05.768Z,5.88
2022-11-21T08:27:05.747Z,5.99
2022-11-21T08:28:05.735Z,6.05
2022-11-21T08:29:05.711Z,6.07
2022-11-21T08:30:05.690Z,6.32
2022-11-21T08:31:05.677Z,6.47
2022-11-21T08:32:05.649Z,6.57
2022-11-21T08:33:05.627Z,6.80
2022-11-21T08:34:09.118Z,6.87
2022-11-21T08:35:05.590Z,7.03
2022-11-21T08:36:05.573Z,7.05
2022-11-21T08:37:05.549Z,7.25
2022-11-21T08:38:05.540Z,7.41
2022-11-21T08:39:05.510Z,7.43
2022-11-21T08:40:05.497Z,7.47
2022-11-21T08:41:05.470Z,7.51
2022-11-21T08:42:05.478Z,7.48
2022-11-21T08:43:05.439Z,7.62
2022-11-21T08:44:07.616Z,7.61
2022-11-21T08:45:05.401Z,7.61
2022-11-21T08:46:05.377Z,7.59
2022-11-21T08:47:05.358Z,7.62
2022-11-21T08:48:05.340Z,7.69
2022-11-21T08:49:05.348Z,7.87
2022-11-21T08:50:08.939Z,7.87
2022-11-21T08:51:05.282Z,7.88
2022-11-21T08:52:05.262Z,7.85
2022-11-21T08:53:05.247Z,8.01
2022-11-21T08:54:05.225Z,8.05
2022-11-21T08:55:05.207Z,8.16
2022-11-21T08:56:05.186Z,8.09
2022-11-21T08:57:05.169Z,8.16
2022-11-21T08:58:05.149Z,8.18
2022-11-21T08:59:05.224Z,8.28
2022-11-21T09:00:05.117Z,8.32
2022-11-21T09:01:05.092Z,8.32
2022-11-21T09:02:05.134Z,8.34
2022-11-21T09:03:05.057Z,8.24
2022-11-21T09:04:05.038Z,8.27
2022-11-21T09:05:05.024Z,8.16
2022-11-21T09:06:04.998Z,8.16
2022-11-21T09:07:05.008Z,8.02
2022-11-21T09:08:04.964Z,7.95
2022-11-21T09:09:05.027Z,7.84
2022-11-21T09:10:04.923Z,7.74
2022-11-21T09:11:04.907Z,7.75
2022-11-21T09:12:04.887Z,7.64
2022-11-21T09:13:04.868Z,7.58
2022-11-21T09:14:04.852Z,7.40
2022-11-21T09:15:04.832Z,7.46
2022-11-21T09:16:04.812Z,7.32
2022-11-21T09:17:04.791Z,7.28
2022-11-21T09:18:04.870Z,7.25
2022-11-21T09:19:04.864Z,7.18
2022-11-21T09:20:04.779Z,7.08
2022-11-21T09:21:04.718Z,7.05
2022-11-21T09:22:04.698Z,7.04
2022-11-21T09:23:04.680Z,6.95
2022-11-21T09:24:04.659Z,7.04
2022-11-21T09:25:04.641Z,7.00
2022-11-21T09:26:04.622Z,7.00
2022-11-21T09:27:04.606Z,6.93
2022-11-21T09:28:04.832Z,6.90
2022-11-21T09:29:04.632Z,6.90
2022-11-21T09:30:04.547Z,6.87
2022-11-21T09:31:04.528Z,6.89
2022-11-21T09:32:04.513Z,6.86
2022-11-21T09:33:04.488Z,6.77
2022-11-21T09:34:04.468Z,6.83
2022-11-21T09:35:04.451Z,6.95
2022-11-21T09:36:04.428Z,7.05
2022-11-21T09:37:04.409Z,7.23
2022-11-21T09:38:04.391Z,7.37
2022-11-21T09:39:04.372Z,7.46
2022-11-21T09:40:05.270Z,7.44
2022-11-21T09:41:04.336Z,7.56
2022-11-21T09:42:04.317Z,7.56
2022-11-21T09:43:04.296Z,7.51
2022-11-21T09:44:04.277Z,7.72
2022-11-21T09:45:04.259Z,7.56
2022-11-21T09:46:04.237Z,7.64
2022-11-21T09:47:04.216Z,7.61
2022-11-21T09:48:04.202Z,7.75
2022-11-21T09:49:04.183Z,7.99
2022-11-21T09:50:04.161Z,8.16
2022-11-21T09:51:04.145Z,8.28
2022-11-21T09:52:04.125Z,8.57
2022-11-21T09:53:04.104Z,8.79
2022-11-21T09:54:04.089Z,9.09
2022-11-21T09:55:04.071Z,9.16
2022-11-21T09:56:04.051Z,9.36
2022-11-21T09:57:04.033Z,9.51
2022-11-21T09:58:04.016Z,9.51
2022-11-21T09:59:03.998Z,9.48
2022-11-21T10:00:03.981Z,9.44
2022-11-21T10:01:03.997Z,9.34
2022-11-21T10:02:03.940Z,9.31
2022-11-21T10:03:03.922Z,9.27
2022-11-21T10:04:03.904Z,9.31
2022-11-21T10:05:03.886Z,9.37
2022-11-21T10:06:03.868Z,9.48
2022-11-21T10:07:03.983Z,9.54
2022-11-21T10:08:03.829Z,9.66
2022-11-21T10:09:03.814Z,9.81
2022-11-21T10:10:03.796Z,9.88
2022-11-21T10:11:12.606Z,10.00
2022-11-21T10:12:03.758Z,10.21
2022-11-21T10:13:03.745Z,10.46
2022-11-21T10:14:03.741Z,10.67
2022-11-21T10:15:03.715Z,10.84
2022-11-21T10:16:03.741Z,11.15
2022-11-21T10:17:03.690Z,11.23
2022-11-21T10:18:03.656Z,11.44
2022-11-21T10:19:03.639Z,11.45
2022-11-21T10:20:03.672Z,11.44
2022-11-21T10:21:03.605Z,11.53
2022-11-21T10:22:03.589Z,11.60
2022-11-21T10:23:03.567Z,11.51
2022-11-21T10:24:03.552Z,11.44
2022-11-21T10:25:03.535Z,11.49
2022-11-21T10:26:03.525Z,11.19
2022-11-21T10:27:03.500Z,10.92
2022-11-21T10:28:03.482Z,10.69
2022-11-21T10:29:03.467Z,10.46
2022-11-21T10:30:03.457Z,10.27
2022-11-21T10:31:03.430Z,10.02
2022-11-21T10:32:03.420Z,9.88
2022-11-21T10:33:03.416Z,9.67
2022-11-21T10:34:03.383Z,9.56
2022-11-21T10:35:03.363Z,9.51
2022-11-21T10:36:03.342Z,9.30
2022-11-21T10:37:06.505Z,9.16
2022-11-21T10:38:03.311Z,8.99
2022-11-21T10:39:03.295Z,8.96
2022-11-21T10:40:03.276Z,8.78
2022-11-21T10:41:03.257Z,8.78
2022-11-21T10:42:03.244Z,8.78
2022-11-21T10:43:03.228Z,8.75
2022-11-21T10:44:03.205Z,8.79
2022-11-21T10:45:03.185Z,8.75
2022-11-21T10:46:03.169Z,8.79
2022-11-21T10:47:03.152Z,8.68
2022-11-21T10:48:08.052Z,8.86
2022-11-21T10:49:03.116Z,8.79
2022-11-21T10:50:03.095Z,8.92
2022-11-21T10:51:03.080Z,9.02
2022-11-21T10:52:03.064Z,9.22
2022-11-21T10:53:03.042Z,9.42
2022-11-21T10:54:07.578Z,9.56
2022-11-21T10:55:03.028Z,9.70
2022-11-21T10:56:02.988Z,9.90
2022-11-21T10:57:02.968Z,10.25
2022-11-21T10:58:02.953Z,10.45
2022-11-21T10:59:02.935Z,10.84
2022-11-21T11:00:03.428Z,11.12
2022-11-21T11:01:02.934Z,11.34
2022-11-21T11:02:02.893Z,11.34
2022-11-21T11:03:02.864Z,11.35
2022-11-21T11:04:26.192Z,11.41
2022-11-21T11:05:02.838Z,11.45
2022-11-21T11:06:02.813Z,11.37
2022-11-21T11:07:02.880Z,11.30
2022-11-21T11:08:02.778Z,11.16
2022-11-21T11:09:02.764Z,10.94
2022-11-21T11:10:02.767Z,10.72
2022-11-21T11:11:02.727Z,10.61
2022-11-21T11:12:02.708Z,10.46
2022-11-21T11:13:05.246Z,10.28
2022-11-21T11:14:02.678Z,10.13
2022-11-21T11:15:02.666Z,9.97
2022-11-21T11:16:02.650Z,9.92
2022-11-21T11:17:02.623Z,9.72
2022-11-21T11:18:08.858Z,9.59
2022-11-21T11:19:02.598Z,9.51
2022-11-21T11:20:02.594Z,9.33
2022-11-21T11:21:02.556Z,9.40
2022-11-21T11:22:02.535Z,9.52
2022-11-21T11:23:02.520Z,9.77
2022-11-21T11:24:02.504Z,9.94
2022-11-21T11:25:02.484Z,10.24
2022-11-21T11:27:34.590Z,10.89
2022-11-21T11:28:34.556Z,11.23
2022-11-21T11:30:38.693Z,11.67
2022-11-21T11:31:38.657Z,11.76
2022-11-21T11:33:43.106Z,12.14
2022-11-21T11:34:43.076Z,12.29
2022-11-21T11:35:43.058Z,12.36
2022-11-21T11:36:43.038Z,12.44
2022-11-21T11:37:43.030Z,12.48
2022-11-21T11:38:43.006Z,12.37
2022-11-21T11:39:42.988Z,12.33
2022-11-21T11:40:42.975Z,12.10
2022-11-21T11:41:42.959Z,12.05
2022-11-21T11:42:42.940Z,11.81
2022-11-21T11:43:42.923Z,11.59
2022-11-21T11:44:42.906Z,11.35
2022-11-21T11:45:42.888Z,11.33
2022-11-21T11:46:42.878Z,11.18
2022-11-21T11:47:42.887Z,11.05
2022-11-21T11:49:10.973Z,10.92
2022-11-21T11:49:42.823Z,10.87
2022-11-21T11:50:42.812Z,10.94
2022-11-21T11:51:42.799Z,11.18
2022-11-21T11:52:42.772Z,11.37
2022-11-21T11:53:42.827Z,11.52
2022-11-21T11:54:42.741Z,11.68
2022-11-21T11:55:42.726Z,11.85
2022-11-21T11:56:42.707Z,12.11
2022-11-21T11:57:42.690Z,12.36
2022-11-21T11:58:42.674Z,12.68
2022-11-21T11:59:42.658Z,12.87
2022-11-21T12:00:42.643Z,13.13
2022-11-21T12:01:42.663Z,13.47
2022-11-21T12:02:42.647Z,13.71
2022-11-21T12:03:42.597Z,14.04
2022-11-21T12:04:42.582Z,14.26
2022-11-21T12:05:42.562Z,14.33
2022-11-21T12:07:41.231Z,14.51
2022-11-21T12:08:43.118Z,14.33
2022-11-21T12:09:42.528Z,14.20
2022-11-21T12:10:42.485Z,14.20
2022-11-21T12:11:42.472Z,14.04
2022-11-21T12:12:42.455Z,14.19
2022-11-21T12:13:42.443Z,14.28
2022-11-21T12:14:42.422Z,14.20
2022-11-21T12:15:42.409Z,14.08
2022-11-21T12:16:42.394Z,13.87
2022-11-21T12:17:42.378Z,13.49
2022-11-21T12:18:42.363Z,13.13
2022-11-21T12:19:42.346Z,12.90
2022-11-21T12:20:42.342Z,12.84
2022-11-21T12:21:42.319Z,12.68
2022-11-21T12:22:42.330Z,12.57
2022-11-21T12:23:42.304Z,12.58
2022-11-21T12:24:43.393Z,12.51
2022-11-21T12:25:42.251Z,12.43
2022-11-21T12:26:42.238Z,12.30
2022-11-21T12:27:42.221Z,12.23
2022-11-21T12:28:42.210Z,12.11
2022-11-21T12:29:42.190Z,11.85
2022-11-21T12:30:42.178Z,11.60
2022-11-21T12:31:42.172Z,11.38
2022-11-21T12:32:42.142Z,11.05
2022-11-21T12:33:42.124Z,10.95
2022-11-21T12:34:42.109Z,10.80
2022-11-21T12:35:42.092Z,10.51
2022-11-21T12:36:42.075Z,10.49
2022-11-21T12:37:42.060Z,10.67
2022-11-21T12:38:44.901Z,10.90
2022-11-21T12:39:42.040Z,11.31
2022-11-21T12:40:42.011Z,11.52
2022-11-21T12:41:41.992Z,11.63
2022-11-21T12:42:41.978Z,11.73
2022-11-21T12:43:41.961Z,11.74
2022-11-21T12:44:41.945Z,11.85
2022-11-21T12:45:41.929Z,11.96
2022-11-21T12:46:41.913Z,12.00
2022-11-21T12:47:41.892Z,12.08
2022-11-21T12:48:41.883Z,12.21
2022-11-21T12:49:41.867Z,12.21
2022-11-21T12:50:41.848Z,12.35
2022-11-21T12:51:41.833Z,12.47
2022-11-21T12:52:41.816Z,12.45
2022-11-21T12:53:41.798Z,12.45
2022-11-21T12:54:41.782Z,12.57
2022-11-21T12:55:41.769Z,12.63
2022-11-21T12:56:41.754Z,12.73
2022-11-21T12:57:41.737Z,12.73
2022-11-21T12:58:41.720Z,12.84
2022-11-21T12:59:41.702Z,12.87
2022-11-21T13:00:41.693Z,12.87
2022-11-21T13:01:41.710Z,12.90
2022-11-21T13:02:41.655Z,12.61
2022-11-21T13:03:41.640Z,12.45
2022-11-21T13:04:41.622Z,12.14
2022-11-21T13:05:41.619Z,11.97
2022-11-21T13:06:41.595Z,11.71
2022-11-21T13:07:41.620Z,11.67
2022-11-21T13:08:41.560Z,11.78
2022-11-21T13:09:41.543Z,12.05
2022-11-21T13:10:41.531Z,12.36
2022-11-21T13:11:41.516Z,12.65
2022-11-21T13:12:41.499Z,13.03
2022-11-21T13:13:41.479Z,13.33
2022-11-21T13:14:41.466Z,13.62
2022-11-21T13:15:41.447Z,13.83
2022-11-21T13:16:41.433Z,14.20
2022-11-21T13:17:41.420Z,14.52
2022-11-21T13:18:41.402Z,14.63
2022-11-21T13:19:41.387Z,14.71
2022-11-21T13:20:41.373Z,14.81